sensor_id;sensor_type;location;lat;lon;timestamp;P1;durP1;ratioP1;P2;durP2;ratioP2
53642;SDS011;39546;45.534;12.048;2023-05-23T00:01:34;5.60;;;4.05;;
53642;SDS011;39546;45.534;12.048;2023-05-23T00:07:38;7.00;;;4.25;;
53642;SDS011;39546;45.534;12.048;2023-05-23T00:13:40;7.07;;;4.90;;
53642;SDS011;39546;45.534;12.048;2023-05-23T00:19:42;6.95;;;5.18;;
53642;SDS011;39546;45.534;12.048;2023-05-23T00:25:46;6.72;;;5.03;;
53642;SDS011;39546;45.534;12.048;2023-05-23T00:31:53;7.62;;;5.50;;
53642;SDS011;39546;45.534;12.048;2023-05-23T00:37:55;6.82;;;5.15;;
53642;SDS011;39546;45.534;12.048;2023-05-23T00:43:57;7.22;;;5.35;;
53642;SDS011;39546;45.534;12.048;2023-05-23T00:50:00;12.57;;;6.45;;
53642;SDS011;39546;45.534;12.048;2023-05-23T00:56:02;7.03;;;4.90;;
53642;SDS011;39546;45.534;12.048;2023-05-23T01:02:04;11.70;;;7.22;;
53642;SDS011;39546;45.534;12.048;2023-05-23T01:08:06;8.60;;;6.30;;
53642;SDS011;39546;45.534;12.048;2023-05-23T01:20:43;8.57;;;6.57;;
53642;SDS011;39546;45.534;12.048;2023-05-23T01:27:20;10.13;;;7.00;;
53642;SDS011;39546;45.534;12.048;2023-05-23T01:33:31;8.88;;;6.15;;
53642;SDS011;39546;45.534;12.048;2023-05-23T01:39:36;12.35;;;7.28;;
53642;SDS011;39546;45.534;12.048;2023-05-23T01:45:38;8.50;;;5.97;;
53642;SDS011;39546;45.534;12.048;2023-05-23T01:51:40;7.12;;;5.78;;
53642;SDS011;39546;45.534;12.048;2023-05-23T01:57:43;9.20;;;6.22;;
53642;SDS011;39546;45.534;12.048;2023-05-23T02:03:50;9.80;;;6.82;;
53642;SDS011;39546;45.534;12.048;2023-05-23T02:09:51;8.75;;;6.85;;
53642;SDS011;39546;45.534;12.048;2023-05-23T02:15:53;8.18;;;6.32;;
53642;SDS011;39546;45.534;12.048;2023-05-23T02:21:55;7.35;;;5.85;;
53642;SDS011;39546;45.534;12.048;2023-05-23T02:27:58;7.62;;;4.53;;
53642;SDS011;39546;45.534;12.048;2023-05-23T02:34:00;9.23;;;7.40;;
53642;SDS011;39546;45.534;12.048;2023-05-23T02:40:03;12.82;;;6.25;;
53642;SDS011;39546;45.534;12.048;2023-05-23T02:46:07;8.88;;;6.47;;
53642;SDS011;39546;45.534;12.048;2023-05-23T02:52:10;11.05;;;6.32;;
53642;SDS011;39546;45.534;12.048;2023-05-23T02:58:17;6.03;;;4.75;;
53642;SDS011;39546;45.534;12.048;2023-05-23T03:04:19;6.65;;;5.20;;
53642;SDS011;39546;45.534;12.048;2023-05-23T03:10:21;8.52;;;5.75;;
53642;SDS011;39546;45.534;12.048;2023-05-23T03:16:23;8.35;;;6.40;;
53642;SDS011;39546;45.534;12.048;2023-05-23T03:22:25;7.47;;;5.30;;
53642;SDS011;39546;45.534;12.048;2023-05-23T03:28:29;9.30;;;6.18;;
53642;SDS011;39546;45.534;12.048;2023-05-23T03:34:31;6.10;;;4.57;;
53642;SDS011;39546;45.534;12.048;2023-05-23T03:40:34;8.07;;;5.87;;
53642;SDS011;39546;45.534;12.048;2023-05-23T03:46:36;7.75;;;5.70;;
53642;SDS011;39546;45.534;12.048;2023-05-23T03:52:38;8.25;;;5.75;;
53642;SDS011;39546;45.534;12.048;2023-05-23T03:58:40;9.48;;;6.07;;
53642;SDS011;39546;45.534;12.048;2023-05-23T04:04:43;10.25;;;6.93;;
53642;SDS011;39546;45.534;12.048;2023-05-23T04:10:45;8.30;;;6.25;;
53642;SDS011;39546;45.534;12.048;2023-05-23T04:16:48;16.92;;;8.38;;
53642;SDS011;39546;45.534;12.048;2023-05-23T04:22:52;9.73;;;6.85;;
53642;SDS011;39546;45.534;12.048;2023-05-23T04:28:54;7.50;;;5.82;;
53642;SDS011;39546;45.534;12.048;2023-05-23T04:34:56;8.25;;;6.35;;
53642;SDS011;39546;45.534;12.048;2023-05-23T04:40:59;11.77;;;7.03;;
53642;SDS011;39546;45.534;12.048;2023-05-23T04:47:01;10.02;;;7.57;;
53642;SDS011;39546;45.534;12.048;2023-05-23T04:53:04;7.95;;;5.80;;
53642;SDS011;39546;45.534;12.048;2023-05-23T04:59:14;14.27;;;8.55;;
53642;SDS011;39546;45.534;12.048;2023-05-23T05:05:22;8.95;;;6.28;;
53642;SDS011;39546;45.534;12.048;2023-05-23T05:11:25;11.27;;;7.60;;
53642;SDS011;39546;45.534;12.048;2023-05-23T05:17:28;11.07;;;7.90;;
53642;SDS011;39546;45.534;12.048;2023-05-23T05:23:31;10.15;;;7.57;;
53642;SDS011;39546;45.534;12.048;2023-05-23T05:29:35;7.28;;;5.50;;
53642;SDS011;39546;45.534;12.048;2023-05-23T05:35:36;8.57;;;5.85;;
53642;SDS011;39546;45.534;12.048;2023-05-23T05:41:39;8.18;;;5.85;;
53642;SDS011;39546;45.534;12.048;2023-05-23T05:47:43;9.45;;;5.95;;
53642;SDS011;39546;45.534;12.048;2023-05-23T05:53:46;7.10;;;5.35;;
53642;SDS011;39546;45.534;12.048;2023-05-23T05:59:50;6.95;;;4.85;;
53642;SDS011;39546;45.534;12.048;2023-05-23T06:05:52;10.93;;;6.12;;
53642;SDS011;39546;45.534;12.048;2023-05-23T06:11:55;7.55;;;5.47;;
53642;SDS011;39546;45.534;12.048;2023-05-23T06:17:57;6.90;;;5.22;;
53642;SDS011;39546;45.534;12.048;2023-05-23T06:23:59;7.05;;;4.68;;
53642;SDS011;39546;45.534;12.048;2023-05-23T06:30:02;7.37;;;5.07;;
53642;SDS011;39546;45.534;12.048;2023-05-23T06:36:04;7.75;;;5.37;;
53642;SDS011;39546;45.534;12.048;2023-05-23T06:42:06;7.72;;;4.07;;
53642;SDS011;39546;45.534;12.048;2023-05-23T06:48:49;5.47;;;4.25;;
53642;SDS011;39546;45.534;12.048;2023-05-23T06:54:51;4.90;;;3.20;;
53642;SDS011;39546;45.534;12.048;2023-05-23T07:00:53;6.10;;;4.28;;
53642;SDS011;39546;45.534;12.048;2023-05-23T07:06:56;5.20;;;3.12;;
53642;SDS011;39546;45.534;12.048;2023-05-23T07:12:58;6.53;;;4.18;;
53642;SDS011;39546;45.534;12.048;2023-05-23T07:25:18;6.22;;;3.47;;
53642;SDS011;39546;45.534;12.048;2023-05-23T07:31:24;4.47;;;3.37;;
53642;SDS011;39546;45.534;12.048;2023-05-23T07:37:27;6.25;;;4.97;;
53642;SDS011;39546;45.534;12.048;2023-05-23T07:43:29;6.68;;;4.18;;
53642;SDS011;39546;45.534;12.048;2023-05-23T07:49:31;6.43;;;3.92;;
53642;SDS011;39546;45.534;12.048;2023-05-23T07:55:33;7.50;;;4.62;;
53642;SDS011;39546;45.534;12.048;2023-05-23T08:01:36;4.47;;;3.10;;
53642;SDS011;39546;45.534;12.048;2023-05-23T08:07:38;5.12;;;3.22;;
53642;SDS011;39546;45.534;12.048;2023-05-23T08:13:40;6.25;;;3.75;;
53642;SDS011;39546;45.534;12.048;2023-05-23T08:19:49;8.82;;;4.55;;
53642;SDS011;39546;45.534;12.048;2023-05-23T08:25:52;5.40;;;3.65;;
53642;SDS011;39546;45.534;12.048;2023-05-23T08:32:24;6.07;;;4.05;;
53642;SDS011;39546;45.534;12.048;2023-05-23T08:38:27;4.70;;;3.20;;
53642;SDS011;39546;45.534;12.048;2023-05-23T08:44:31;7.40;;;3.85;;
53642;SDS011;39546;45.534;12.048;2023-05-23T08:50:34;6.25;;;4.78;;
53642;SDS011;39546;45.534;12.048;2023-05-23T08:56:40;6.47;;;3.87;;
53642;SDS011;39546;45.534;12.048;2023-05-23T09:02:45;5.47;;;3.87;;
53642;SDS011;39546;45.534;12.048;2023-05-23T09:08:49;8.13;;;5.20;;
53642;SDS011;39546;45.534;12.048;2023-05-23T09:14:53;7.00;;;5.05;;
53642;SDS011;39546;45.534;12.048;2023-05-23T09:20:56;7.30;;;4.43;;
53642;SDS011;39546;45.534;12.048;2023-05-23T09:26:58;6.43;;;4.65;;
53642;SDS011;39546;45.534;12.048;2023-05-23T09:33:02;10.27;;;5.25;;
53642;SDS011;39546;45.534;12.048;2023-05-23T09:39:04;13.43;;;6.25;;
53642;SDS011;39546;45.534;12.048;2023-05-23T09:45:07;6.25;;;4.57;;
53642;SDS011;39546;45.534;12.048;2023-05-23T09:51:19;8.50;;;4.85;;
53642;SDS011;39546;45.534;12.048;2023-05-23T09:57:22;7.30;;;4.37;;
53642;SDS011;39546;45.534;12.048;2023-05-23T10:03:36;8.23;;;5.60;;
53642;SDS011;39546;45.534;12.048;2023-05-23T10:09:40;14.70;;;6.25;;
53642;SDS011;39546;45.534;12.048;2023-05-23T10:15:43;7.72;;;4.57;;
53642;SDS011;39546;45.534;12.048;2023-05-23T10:21:49;5.57;;;4.28;;
53642;SDS011;39546;45.534;12.048;2023-05-23T10:27:55;6.35;;;4.35;;
53642;SDS011;39546;45.534;12.048;2023-05-23T10:34:11;4.90;;;3.67;;
53642;SDS011;39546;45.534;12.048;2023-05-23T10:47:24;9.27;;;5.57;;
53642;SDS011;39546;45.534;12.048;2023-05-23T10:53:31;7.40;;;5.07;;
53642;SDS011;39546;45.534;12.048;2023-05-23T10:59:40;7.57;;;5.40;;
53642;SDS011;39546;45.534;12.048;2023-05-23T11:05:52;6.57;;;4.55;;
53642;SDS011;39546;45.534;12.048;2023-05-23T11:12:02;12.50;;;5.47;;
53642;SDS011;39546;45.534;12.048;2023-05-23T11:18:22;6.05;;;4.22;;
53642;SDS011;39546;45.534;12.048;2023-05-23T11:30:55;9.88;;;4.82;;
53642;SDS011;39546;45.534;12.048;2023-05-23T11:37:03;10.32;;;4.93;;
53642;SDS011;39546;45.534;12.048;2023-05-23T11:43:07;5.90;;;3.87;;
53642;SDS011;39546;45.534;12.048;2023-05-23T11:49:12;7.62;;;5.43;;
53642;SDS011;39546;45.534;12.048;2023-05-23T11:55:18;10.35;;;4.95;;
53642;SDS011;39546;45.534;12.048;2023-05-23T12:01:27;8.88;;;4.60;;
53642;SDS011;39546;45.534;12.048;2023-05-23T12:07:32;4.85;;;4.20;;
53642;SDS011;39546;45.534;12.048;2023-05-23T12:13:34;9.15;;;5.45;;
53642;SDS011;39546;45.534;12.048;2023-05-23T12:19:36;15.65;;;5.93;;
53642;SDS011;39546;45.534;12.048;2023-05-23T12:31:52;7.53;;;5.05;;
53642;SDS011;39546;45.534;12.048;2023-05-23T12:37:55;10.02;;;4.78;;
53642;SDS011;39546;45.534;12.048;2023-05-23T12:43:57;7.37;;;6.20;;
53642;SDS011;39546;45.534;12.048;2023-05-23T12:50:00;6.70;;;4.75;;
53642;SDS011;39546;45.534;12.048;2023-05-23T12:56:02;5.93;;;4.30;;
53642;SDS011;39546;45.534;12.048;2023-05-23T13:02:06;10.57;;;6.07;;
53642;SDS011;39546;45.534;12.048;2023-05-23T13:08:12;13.53;;;7.70;;
53642;SDS011;39546;45.534;12.048;2023-05-23T13:14:52;21.05;;;5.22;;
53642;SDS011;39546;45.534;12.048;2023-05-23T13:20:59;9.35;;;5.97;;
53642;SDS011;39546;45.534;12.048;2023-05-23T13:27:02;7.53;;;4.95;;
53642;SDS011;39546;45.534;12.048;2023-05-23T13:33:06;7.53;;;5.25;;
53642;SDS011;39546;45.534;12.048;2023-05-23T13:39:08;7.30;;;4.97;;
53642;SDS011;39546;45.534;12.048;2023-05-23T13:45:10;9.05;;;4.93;;
53642;SDS011;39546;45.534;12.048;2023-05-23T13:51:12;6.87;;;4.32;;
53642;SDS011;39546;45.534;12.048;2023-05-23T13:57:15;8.35;;;4.15;;
53642;SDS011;39546;45.534;12.048;2023-05-23T14:03:18;8.45;;;5.93;;
53642;SDS011;39546;45.534;12.048;2023-05-23T14:09:20;7.15;;;4.82;;
53642;SDS011;39546;45.534;12.048;2023-05-23T14:15:22;7.97;;;4.55;;
53642;SDS011;39546;45.534;12.048;2023-05-23T14:21:24;6.60;;;4.80;;
53642;SDS011;39546;45.534;12.048;2023-05-23T14:27:27;5.07;;;4.03;;
53642;SDS011;39546;45.534;12.048;2023-05-23T14:33:37;10.40;;;4.15;;
53642;SDS011;39546;45.534;12.048;2023-05-23T14:39:39;5.62;;;3.85;;
53642;SDS011;39546;45.534;12.048;2023-05-23T14:45:42;6.03;;;4.65;;
53642;SDS011;39546;45.534;12.048;2023-05-23T14:51:44;7.80;;;5.97;;
53642;SDS011;39546;45.534;12.048;2023-05-23T14:57:46;6.45;;;3.95;;
53642;SDS011;39546;45.534;12.048;2023-05-23T15:03:48;5.97;;;4.22;;
53642;SDS011;39546;45.534;12.048;2023-05-23T15:09:50;7.30;;;4.37;;
53642;SDS011;39546;45.534;12.048;2023-05-23T15:15:53;5.32;;;3.60;;
53642;SDS011;39546;45.534;12.048;2023-05-23T15:21:55;6.07;;;4.30;;
53642;SDS011;39546;45.534;12.048;2023-05-23T15:27:57;7.55;;;5.32;;
53642;SDS011;39546;45.534;12.048;2023-05-23T15:33:59;6.12;;;3.85;;
53642;SDS011;39546;45.534;12.048;2023-05-23T15:40:01;5.30;;;3.67;;
53642;SDS011;39546;45.534;12.048;2023-05-23T15:46:04;6.22;;;3.95;;
53642;SDS011;39546;45.534;12.048;2023-05-23T15:52:06;5.75;;;3.72;;
53642;SDS011;39546;45.534;12.048;2023-05-23T15:58:09;5.93;;;3.97;;
53642;SDS011;39546;45.534;12.048;2023-05-23T16:04:11;4.10;;;2.67;;
53642;SDS011;39546;45.534;12.048;2023-05-23T16:10:13;12.73;;;4.12;;
53642;SDS011;39546;45.534;12.048;2023-05-23T16:16:16;5.55;;;2.62;;
53642;SDS011;39546;45.534;12.048;2023-05-23T16:22:18;4.47;;;2.58;;
53642;SDS011;39546;45.534;12.048;2023-05-23T16:28:20;4.15;;;2.80;;
53642;SDS011;39546;45.534;12.048;2023-05-23T16:34:23;4.65;;;2.45;;
53642;SDS011;39546;45.534;12.048;2023-05-23T16:40:49;5.47;;;2.55;;
53642;SDS011;39546;45.534;12.048;2023-05-23T16:46:51;7.40;;;2.58;;
53642;SDS011;39546;45.534;12.048;2023-05-23T16:52:53;3.60;;;1.98;;
53642;SDS011;39546;45.534;12.048;2023-05-23T16:58:55;3.65;;;2.40;;
53642;SDS011;39546;45.534;12.048;2023-05-23T17:04:58;5.28;;;3.60;;
53642;SDS011;39546;45.534;12.048;2023-05-23T17:11:00;3.90;;;2.30;;
53642;SDS011;39546;45.534;12.048;2023-05-23T17:17:02;8.55;;;3.20;;
53642;SDS011;39546;45.534;12.048;2023-05-23T17:23:05;4.35;;;2.20;;
53642;SDS011;39546;45.534;12.048;2023-05-23T17:29:08;4.70;;;2.65;;
53642;SDS011;39546;45.534;12.048;2023-05-23T17:35:11;3.30;;;2.00;;
53642;SDS011;39546;45.534;12.048;2023-05-23T17:41:13;3.92;;;2.33;;
53642;SDS011;39546;45.534;12.048;2023-05-23T17:47:16;6.55;;;3.97;;
53642;SDS011;39546;45.534;12.048;2023-05-23T17:53:18;7.43;;;4.68;;
53642;SDS011;39546;45.534;12.048;2023-05-23T17:59:21;7.82;;;5.75;;
53642;SDS011;39546;45.534;12.048;2023-05-23T18:05:23;12.75;;;5.60;;
53642;SDS011;39546;45.534;12.048;2023-05-23T18:11:26;7.55;;;5.65;;
53642;SDS011;39546;45.534;12.048;2023-05-23T18:17:28;9.85;;;5.20;;
53642;SDS011;39546;45.534;12.048;2023-05-23T18:23:30;7.15;;;5.62;;
53642;SDS011;39546;45.534;12.048;2023-05-23T18:29:34;8.63;;;6.00;;
53642;SDS011;39546;45.534;12.048;2023-05-23T18:35:37;18.95;;;5.97;;
53642;SDS011;39546;45.534;12.048;2023-05-23T18:41:39;9.52;;;8.23;;
53642;SDS011;39546;45.534;12.048;2023-05-23T18:47:41;12.88;;;6.70;;
53642;SDS011;39546;45.534;12.048;2023-05-23T18:53:44;10.38;;;6.72;;
53642;SDS011;39546;45.534;12.048;2023-05-23T18:59:47;8.95;;;6.68;;
53642;SDS011;39546;45.534;12.048;2023-05-23T19:06:05;11.43;;;7.35;;
53642;SDS011;39546;45.534;12.048;2023-05-23T19:12:07;14.07;;;9.90;;
53642;SDS011;39546;45.534;12.048;2023-05-23T19:18:09;18.87;;;9.50;;
53642;SDS011;39546;45.534;12.048;2023-05-23T19:24:14;10.25;;;7.15;;
53642;SDS011;39546;45.534;12.048;2023-05-23T19:30:17;11.52;;;9.18;;
53642;SDS011;39546;45.534;12.048;2023-05-23T19:36:19;8.00;;;6.03;;
53642;SDS011;39546;45.534;12.048;2023-05-23T19:42:21;13.77;;;5.45;;
53642;SDS011;39546;45.534;12.048;2023-05-23T19:48:24;9.00;;;4.93;;
53642;SDS011;39546;45.534;12.048;2023-05-23T19:54:26;5.95;;;3.58;;
53642;SDS011;39546;45.534;12.048;2023-05-23T20:00:29;7.55;;;4.07;;
53642;SDS011;39546;45.534;12.048;2023-05-23T20:06:32;5.22;;;3.33;;
53642;SDS011;39546;45.534;12.048;2023-05-23T20:12:34;6.15;;;4.25;;
53642;SDS011;39546;45.534;12.048;2023-05-23T20:18:36;5.50;;;3.22;;
53642;SDS011;39546;45.534;12.048;2023-05-23T20:24:38;4.53;;;3.30;;
53642;SDS011;39546;45.534;12.048;2023-05-23T20:30:40;5.60;;;2.60;;
53642;SDS011;39546;45.534;12.048;2023-05-23T20:36:56;4.65;;;2.55;;
53642;SDS011;39546;45.534;12.048;2023-05-23T20:42:58;5.55;;;2.70;;
53642;SDS011;39546;45.534;12.048;2023-05-23T20:49:05;5.55;;;2.85;;
53642;SDS011;39546;45.534;12.048;2023-05-23T20:55:07;5.75;;;3.33;;
53642;SDS011;39546;45.534;12.048;2023-05-23T21:01:11;4.12;;;2.75;;
53642;SDS011;39546;45.534;12.048;2023-05-23T21:07:15;5.43;;;3.20;;
53642;SDS011;39546;45.534;12.048;2023-05-23T21:13:17;3.42;;;2.30;;
53642;SDS011;39546;45.534;12.048;2023-05-23T21:19:19;3.55;;;2.62;;
53642;SDS011;39546;45.534;12.048;2023-05-23T21:25:21;4.82;;;2.62;;
53642;SDS011;39546;45.534;12.048;2023-05-23T21:31:23;4.87;;;2.72;;
53642;SDS011;39546;45.534;12.048;2023-05-23T21:37:25;2.15;;;1.80;;
53642;SDS011;39546;45.534;12.048;2023-05-23T21:43:28;4.68;;;2.45;;
53642;SDS011;39546;45.534;12.048;2023-05-23T21:49:29;4.15;;;2.35;;
53642;SDS011;39546;45.534;12.048;2023-05-23T21:55:33;3.90;;;2.65;;
53642;SDS011;39546;45.534;12.048;2023-05-23T22:01:35;3.60;;;2.67;;
53642;SDS011;39546;45.534;12.048;2023-05-23T22:07:37;2.92;;;2.00;;
53642;SDS011;39546;45.534;12.048;2023-05-23T22:13:39;7.57;;;3.35;;
53642;SDS011;39546;45.534;12.048;2023-05-23T22:19:41;6.25;;;3.42;;
53642;SDS011;39546;45.534;12.048;2023-05-23T22:25:43;3.42;;;2.12;;
53642;SDS011;39546;45.534;12.048;2023-05-23T22:31:45;3.97;;;2.55;;
53642;SDS011;39546;45.534;12.048;2023-05-23T22:37:47;4.32;;;2.75;;
53642;SDS011;39546;45.534;12.048;2023-05-23T22:43:49;4.90;;;3.25;;
53642;SDS011;39546;45.534;12.048;2023-05-23T22:49:52;5.25;;;2.20;;
53642;SDS011;39546;45.534;12.048;2023-05-23T22:55:56;2.90;;;2.17;;
53642;SDS011;39546;45.534;12.048;2023-05-23T23:01:59;7.82;;;2.55;;
53642;SDS011;39546;45.534;12.048;2023-05-23T23:08:01;4.50;;;2.78;;
53642;SDS011;39546;45.534;12.048;2023-05-23T23:14:03;5.15;;;2.37;;
53642;SDS011;39546;45.534;12.048;2023-05-23T23:20:06;5.80;;;2.80;;
53642;SDS011;39546;45.534;12.048;2023-05-23T23:26:08;4.72;;;2.83;;
53642;SDS011;39546;45.534;12.048;2023-05-23T23:32:10;4.18;;;2.40;;
53642;SDS011;39546;45.534;12.048;2023-05-23T23:38:13;6.22;;;2.47;;
53642;SDS011;39546;45.534;12.048;2023-05-23T23:44:15;3.40;;;2.30;;
53642;SDS011;39546;45.534;12.048;2023-05-23T23:50:17;4.45;;;2.50;;
53642;SDS011;39546;45.534;12.048;2023-05-23T23:56:26;6.60;;;3.22;;
